Time;durP1;ratioP1;P1;durP2;ratioP2;P2;SDS_P1;SDS_P2;PMS_P1;PMS_P2;Temp;Humidity;BMP_temperature;BMP_pressure;BME280_temperature;BME280_humidity;BME280_pressure;Samples;Min_cycle;Max_cycle;Signal;HPM_P1;HPM_P2
2022/04/18 00:01:09;;;;;;;5.75;2.85;;;;;;;0.23;100.00;90315.03;5010821;28;20018;-65
2022/04/18 00:03:35;;;;;;;5.05;3.10;;;;;;;0.27;100.00;90318.69;5010799;28;20042;-65
2022/04/18 00:06:02;;;;;;;5.25;2.78;;;;;;;0.20;100.00;90313.75;5010633;28;20372;-64
2022/04/18 00:08:27;;;;;;;5.47;3.53;;;;;;;0.18;100.00;90310.59;4993005;28;20125;-64
2022/04/18 00:10:53;;;;;;;14.25;6.25;;;;;;;0.24;100.00;90312.16;5010953;28;20112;-65
2022/04/18 00:13:18;;;;;;;16.90;6.63;;;;;;;0.17;100.00;90321.31;5014376;28;20481;-65
2022/04/18 00:15:44;;;;;;;28.33;9.25;;;;;;;0.17;100.00;90306.41;5014213;28;20076;-65
2022/04/18 00:18:09;;;;;;;12.20;6.80;;;;;;;0.19;100.00;90321.84;5014121;28;20587;-64
2022/04/18 00:20:34;;;;;;;11.95;5.80;;;;;;;0.25;100.00;90310.34;5013921;28;20033;-65
2022/04/18 00:23:00;;;;;;;8.23;5.10;;;;;;;0.27;100.00;90323.94;5014197;28;20037;-65
2022/04/18 00:25:25;;;;;;;4.40;3.63;;;;;;;0.21;100.00;90320.53;5014025;28;20080;-65
2022/04/18 00:27:51;;;;;;;9.50;5.53;;;;;;;0.24;100.00;90317.41;5014134;28;20034;-65
2022/04/18 00:30:16;;;;;;;6.95;4.78;;;;;;;0.17;100.00;90316.88;5013978;28;20040;-64
2022/04/18 00:32:42;;;;;;;5.93;4.38;;;;;;;0.19;100.00;90316.63;5013885;28;20080;-65
2022/04/18 00:35:08;;;;;;;8.65;5.57;;;;;;;0.24;100.00;90311.38;5013936;28;20037;-65
2022/04/18 00:37:36;;;;;;;9.20;5.47;;;;;;;0.18;100.00;90309.81;5013793;28;20049;-65
2022/04/18 00:40:03;;;;;;;8.65;4.90;;;;;;;0.16;100.00;90310.09;5013816;28;20450;-64
2022/04/18 00:42:28;;;;;;;11.90;5.90;;;;;;;0.11;100.00;90307.44;5014069;28;20030;-65
2022/04/18 00:44:54;;;;;;;11.43;5.78;;;;;;;0.12;100.00;90306.41;4995988;28;20113;-65
2022/04/18 00:47:19;;;;;;;8.55;5.50;;;;;;;0.19;100.00;90301.72;5013667;28;20050;-64
2022/04/18 00:49:45;;;;;;;7.47;4.80;;;;;;;0.22;100.00;90298.56;5013735;28;20053;-65
2022/04/18 00:52:11;;;;;;;6.10;4.43;;;;;;;0.14;100.00;90301.69;5013630;28;20040;-64
2022/04/18 00:54:37;;;;;;;7.45;4.93;;;;;;;0.14;100.00;90291.22;5013506;28;20037;-65
2022/04/18 00:57:02;;;;;;;6.30;4.40;;;;;;;0.08;100.00;90287.06;5013758;28;20030;-64
2022/04/18 00:59:31;;;;;;;5.30;3.92;;;;;;;0.15;100.00;90284.16;5013696;28;20032;-64
2022/04/18 01:01:57;;;;;;;7.22;5.45;;;;;;;0.16;100.00;90289.16;5013351;28;20093;-65
2022/04/18 01:04:23;;;;;;;6.32;4.72;;;;;;;0.14;100.00;90291.22;5013457;28;20034;-65
2022/04/18 01:06:48;;;;;;;10.63;4.97;;;;;;;0.11;100.00;90286.53;5013186;28;20415;-65
2022/04/18 01:09:14;;;;;;;7.55;4.80;;;;;;;0.17;100.00;90284.72;5013376;28;20026;-65
2022/04/18 01:11:40;;;;;;;23.83;11.75;;;;;;;0.12;100.00;90280.25;5013241;28;20543;-64
2022/04/18 01:14:06;;;;;;;14.93;8.43;;;;;;;0.13;100.00;90283.66;5013256;28;20030;-65
2022/04/18 01:16:32;;;;;;;10.45;6.88;;;;;;;0.08;100.00;90267.97;5013094;28;20032;-65
2022/04/18 01:18:57;;;;;;;6.45;4.90;;;;;;;0.10;100.00;90274.50;5013010;28;20042;-65
2022/04/18 01:21:23;;;;;;;5.80;4.20;;;;;;;0.02;100.00;90272.41;5013033;28;20038;-65
2022/04/18 01:23:49;;;;;;;4.95;4.22;;;;;;;0.06;100.00;90272.69;5012582;28;20042;-64
2022/04/18 01:28:58;;;;;;;5.90;4.78;;;;;;;0.08;100.00;90262.72;5013190;28;20522;-64
2022/04/18 01:31:33;;;;;;;6.85;4.57;;;;;;;-0.01;100.00;90268.47;5012925;28;20041;-64
2022/04/18 01:33:59;;;;;;;8.00;5.53;;;;;;;0.05;100.00;90260.66;5012848;28;20044;-65
2022/04/18 01:36:26;;;;;;;7.75;5.15;;;;;;;0.05;100.00;90261.44;5012725;28;20175;-65
2022/04/18 01:38:52;;;;;;;6.90;4.65;;;;;;;0.02;100.00;90266.41;5012730;28;20060;-65
2022/04/18 01:41:18;;;;;;;7.72;5.43;;;;;;;0.02;100.00;90256.72;5012742;28;20029;-65
2022/04/18 01:43:44;;;;;;;6.00;4.90;;;;;;;0.02;100.00;90261.97;5012848;28;20030;-65
2022/04/18 01:46:10;;;;;;;4.75;3.97;;;;;;;0.02;100.00;90251.50;5011878;28;20048;-65
2022/04/18 01:48:35;;;;;;;6.20;4.20;;;;;;;0.02;100.00;90255.94;5012522;28;20061;-65
2022/04/18 01:51:01;;;;;;;6.35;3.90;;;;;;;-0.03;100.00;90248.88;5012466;28;20049;-64
2022/04/18 01:53:27;;;;;;;5.70;4.60;;;;;;;-0.07;100.00;90247.81;5012527;28;20025;-64
2022/04/18 01:55:53;;;;;;;6.18;4.60;;;;;;;-0.11;100.00;90233.72;5012393;28;20038;-64
2022/04/18 01:58:19;;;;;;;7.13;4.63;;;;;;;-0.04;100.00;90227.16;5012298;28;20097;-65
2022/04/18 02:00:45;;;;;;;6.72;4.25;;;;;;;0.11;100.00;90236.84;5012344;28;20034;-65
2022/04/18 02:03:10;;;;;;;6.07;3.95;;;;;;;0.13;100.00;90239.97;5012327;28;20496;-65
2022/04/18 02:05:36;;;;;;;5.38;3.60;;;;;;;0.11;100.00;90238.66;5012130;28;20433;-65
2022/04/18 02:08:02;;;;;;;4.65;3.60;;;;;;;0.07;100.00;90238.41;4994435;28;20025;-65
2022/04/18 02:10:27;;;;;;;5.03;4.10;;;;;;;0.17;100.00;90230.56;5012172;28;20472;-65
2022/04/18 02:12:52;;;;;;;4.60;3.78;;;;;;;0.27;100.00;90233.16;5012086;28;20431;-65
2022/04/18 02:15:19;;;;;;;5.47;3.80;;;;;;;0.27;100.00;90229.75;5012083;28;20476;-65
2022/04/18 02:17:44;;;;;;;5.13;3.63;;;;;;;0.30;100.00;90231.84;5011948;28;20124;-65
2022/04/18 02:20:10;;;;;;;6.00;4.45;;;;;;;0.21;100.00;90228.22;5010674;28;20137;-64
2022/04/18 02:22:35;;;;;;;7.78;5.10;;;;;;;0.22;100.00;90232.41;5011892;28;20026;-64
2022/04/18 02:25:01;;;;;;;7.68;5.20;;;;;;;0.22;100.00;90227.94;5011876;28;20109;-64
2022/04/18 02:27:26;;;;;;;5.68;4.45;;;;;;;0.21;100.00;90222.97;5011772;28;20055;-65
2022/04/18 02:29:52;;;;;;;5.07;4.05;;;;;;;0.21;100.00;90221.16;5011821;28;20036;-65
2022/04/18 02:35:01;;;;;;;5.43;3.95;;;;;;;0.13;100.00;90205.19;5011651;28;20525;-64
2022/04/18 02:37:27;;;;;;;6.07;3.85;;;;;;;0.18;100.00;90213.84;5011627;28;20026;-64
2022/04/18 02:39:54;;;;;;;6.22;4.20;;;;;;;0.17;100.00;90222.72;5011673;28;20032;-64
2022/04/18 02:42:20;;;;;;;5.07;3.83;;;;;;;0.12;100.00;90212.25;5011729;28;20066;-66
2022/04/18 02:44:46;;;;;;;4.93;3.95;;;;;;;0.17;100.00;90198.41;5011609;28;20116;-66
2022/04/18 02:47:12;;;;;;;5.78;4.25;;;;;;;0.13;100.00;90199.97;5011425;28;20550;-65
2022/04/18 02:49:38;;;;;;;6.47;4.40;;;;;;;0.19;100.00;90202.31;5010278;28;20133;-65
2022/04/18 02:52:04;;;;;;;8.13;5.10;;;;;;;0.19;100.00;90191.09;5011573;28;20040;-66
2022/04/18 02:54:30;;;;;;;5.70;4.50;;;;;;;0.19;100.00;90198.94;5011421;28;20034;-66
2022/04/18 02:56:55;;;;;;;5.32;3.90;;;;;;;0.10;100.00;90190.81;5011334;28;20099;-66
2022/04/18 02:59:21;;;;;;;5.60;4.05;;;;;;;0.12;100.00;90183.50;5011437;28;20034;-66
2022/04/18 03:01:46;;;;;;;4.55;3.75;;;;;;;0.09;100.00;90199.72;5011299;28;20461;-66
2022/04/18 03:04:12;;;;;;;11.82;5.95;;;;;;;0.10;100.00;90196.06;5011393;28;20037;-66
2022/04/18 03:06:37;;;;;;;5.15;3.53;;;;;;;0.06;100.00;90194.22;5011059;28;20029;-66
2022/04/18 03:09:02;;;;;;;4.43;3.50;;;;;;;0.00;100.00;90190.84;5011238;28;20541;-64
2022/04/18 03:11:28;;;;;;;4.78;3.80;;;;;;;0.06;100.00;90189.00;5011275;28;20025;-64
2022/04/18 03:13:55;;;;;;;5.18;4.10;;;;;;;0.17;100.00;90190.56;5011203;28;20579;-65
2022/04/18 03:16:21;;;;;;;4.47;3.10;;;;;;;0.15;100.00;90188.19;5011407;28;20124;-65
2022/04/18 03:18:46;;;;;;;4.40;3.80;;;;;;;0.07;100.00;90193.97;5010920;28;20040;-64
2022/04/18 03:21:13;;;;;;;3.92;3.50;;;;;;;0.18;100.00;90186.91;5011434;28;20167;-65
2022/04/18 03:23:39;;;;;;;5.28;2.97;;;;;;;0.16;100.00;90189.78;5011184;28;20112;-65
2022/04/18 03:26:06;;;;;;;4.72;3.60;;;;;;;0.16;100.00;90199.44;5010906;28;20025;-66
2022/04/18 03:28:32;;;;;;;4.55;3.80;;;;;;;0.21;100.00;90192.38;5011118;28;20056;-65
2022/04/18 03:30:58;;;;;;;4.20;3.65;;;;;;;0.25;100.00;90201.25;5011115;28;20064;-65
2022/04/18 03:33:23;;;;;;;3.58;3.20;;;;;;;0.17;100.00;90190.56;5010886;28;20022;-65
2022/04/18 03:41:17;;;;;;;4.63;3.90;;;;;;;0.17;100.00;90191.34;5011050;28;20060;-65
2022/04/18 03:43:42;;;;;;;6.43;4.88;;;;;;;0.07;100.00;90195.81;5010991;28;20026;-65
2022/04/18 03:46:08;;;;;;;6.68;4.93;;;;;;;0.06;100.00;90194.22;5012504;28;20500;-65
2022/04/18 03:48:34;;;;;;;4.95;4.00;;;;;;;0.12;100.00;90193.16;5014845;28;20451;-65
2022/04/18 03:50:59;;;;;;;4.30;3.50;;;;;;;0.17;100.00;90196.59;5014825;28;20555;-65
2022/04/18 03:53:25;;;;;;;7.78;5.63;;;;;;;0.10;100.00;90190.81;5014151;28;20040;-65
2022/04/18 03:55:50;;;;;;;16.42;9.73;;;;;;;0.18;100.00;90192.91;5014719;28;20029;-65
2022/04/18 03:58:16;;;;;;;12.60;7.43;;;;;;;0.23;100.00;90194.72;5014614;28;20388;-65
2022/04/18 04:00:45;;;;;;;18.02;9.63;;;;;;;0.23;100.00;90194.72;5014581;28;20030;-65
2022/04/18 04:03:11;;;;;;;20.65;12.43;;;;;;;0.12;100.00;90199.19;5014571;28;20030;-65
2022/04/18 04:05:37;;;;;;;9.15;6.68;;;;;;;0.07;100.00;90204.44;5014495;28;20068;-65
2022/04/18 04:08:04;;;;;;;7.25;4.88;;;;;;;-0.11;100.00;90202.34;5014347;28;20061;-64
2022/04/18 04:10:29;;;;;;;7.18;5.15;;;;;;;-0.19;100.00;90205.47;5014591;28;20085;-65
2022/04/18 04:12:55;;;;;;;7.97;5.88;;;;;;;-0.22;100.00;90206.78;5014612;28;20455;-65
2022/04/18 04:15:21;;;;;;;8.52;5.65;;;;;;;-0.29;100.00;90200.28;5014327;28;20247;-65
2022/04/18 04:17:46;;;;;;;22.85;10.65;;;;;;;-0.18;100.00;90207.03;5014235;28;20033;-65
2022/04/18 04:20:12;;;;;;;6.78;4.70;;;;;;;-0.03;100.00;90207.03;5014073;28;20054;-65
2022/04/18 04:22:42;;;;;;;13.00;8.00;;;;;;;-0.04;100.00;90195.81;5014195;28;20045;-64
2022/04/18 04:25:08;;;;;;;4.45;3.80;;;;;;;0.09;100.00;90196.31;5014033;28;20487;-66
2022/04/18 04:27:33;;;;;;;10.90;7.80;;;;;;;0.05;100.00;90206.53;5014101;28;20033;-65
2022/04/18 04:29:58;;;;;;;8.02;4.18;;;;;;;0.14;100.00;90204.16;5010338;28;20030;-68
2022/04/18 04:32:24;;;;;;;7.78;4.28;;;;;;;0.10;100.00;90198.66;4993295;28;20030;-66
2022/04/18 04:34:50;;;;;;;6.05;4.43;;;;;;;0.14;100.00;90215.38;4994206;28;20030;-67
2022/04/18 04:37:16;;;;;;;5.00;4.00;;;;;;;0.09;100.00;90212.78;4994244;28;20070;-66
2022/04/18 04:39:42;;;;;;;3.92;3.45;;;;;;;0.03;100.00;90208.63;4994315;28;20116;-69
2022/04/18 04:42:07;;;;;;;6.68;6.00;;;;;;;0.21;100.00;90217.75;4993308;28;20037;-70
2022/04/18 04:44:33;;;;;;;5.88;5.28;;;;;;;0.22;100.00;90199.19;4994049;28;20491;-70
2022/04/18 04:46:59;;;;;;;7.55;5.20;;;;;;;0.31;100.00;90207.25;4993747;28;20116;-69
2022/04/18 04:49:24;;;;;;;8.23;5.65;;;;;;;0.30;100.00;90196.00;4994043;28;20516;-71
2022/04/18 04:51:50;;;;;;;6.53;4.70;;;;;;;0.28;100.00;90213.81;4993687;28;20530;-66
2022/04/18 04:54:15;;;;;;;15.40;9.48;;;;;;;0.29;100.00;90197.06;4993970;28;20132;-69
2022/04/18 04:56:40;;;;;;;9.02;5.90;;;;;;;0.42;100.00;90198.34;4992459;28;20030;-68
2022/04/18 04:59:07;;;;;;;6.85;5.10;;;;;;;0.51;100.00;90209.84;4993149;28;20026;-69
2022/04/18 05:01:33;;;;;;;8.52;6.53;;;;;;;0.40;100.00;90218.75;4993648;28;20065;-70
2022/04/18 05:03:58;;;;;;;6.60;5.32;;;;;;;0.49;100.00;90214.56;4993461;28;20480;-69
2022/04/18 05:06:24;;;;;;;7.68;5.20;;;;;;;0.43;100.00;90215.59;4993410;28;20050;-71
2022/04/18 05:08:49;;;;;;;8.60;6.22;;;;;;;0.30;100.00;90211.69;4993423;28;20463;-73
2022/04/18 05:11:15;;;;;;;10.50;8.13;;;;;;;0.32;100.00;90205.41;4993014;28;20117;-73
2022/04/18 05:13:40;;;;;;;8.15;6.03;;;;;;;0.30;100.00;90193.38;4993488;28;20061;-72
2022/04/18 05:16:06;;;;;;;10.25;7.20;;;;;;;0.34;100.00;90208.59;4993347;28;20081;-70
2022/04/18 05:18:32;;;;;;;14.13;8.77;;;;;;;0.58;100.00;90222.66;4993407;28;20046;-68
2022/04/18 05:20:57;;;;;;;28.90;15.20;;;;;;;0.38;100.00;90214.84;4993244;28;20125;-68
2022/04/18 05:23:23;;;;;;;20.17;13.60;;;;;;;0.48;100.00;90218.25;4993256;28;20488;-70
2022/04/18 05:25:48;;;;;;;53.47;31.58;;;;;;;0.46;100.00;90214.28;4992777;28;20033;-65
2022/04/18 05:28:14;;;;;;;16.35;10.20;;;;;;;0.44;100.00;90209.31;4993210;28;20365;-64
2022/04/18 05:30:39;;;;;;;11.35;8.10;;;;;;;0.49;100.00;90219.03;4993114;28;20030;-64
2022/04/18 05:33:06;;;;;;;34.13;18.58;;;;;;;0.47;100.00;90211.41;4993218;28;20492;-65
2022/04/18 05:35:32;;;;;;;34.85;17.85;;;;;;;0.42;100.00;90208.81;4993085;28;20026;-65
2022/04/18 05:37:57;;;;;;;24.00;14.32;;;;;;;0.52;100.00;90218.47;4992847;28;20030;-66
2022/04/18 05:40:23;;;;;;;27.30;17.05;;;;;;;0.43;100.00;90210.38;4992821;28;20086;-65
2022/04/18 05:42:48;;;;;;;28.88;16.77;;;;;;;0.96;100.00;90218.63;4992191;28;20029;-65
2022/04/18 05:45:14;;;;;;;17.48;11.27;;;;;;;0.50;100.00;90212.72;4992814;28;20026;-65
2022/04/18 05:47:39;;;;;;;28.50;11.65;;;;;;;0.39;100.00;90225.03;4992635;28;20385;-65
2022/04/18 05:50:06;;;;;;;29.67;15.00;;;;;;;0.25;100.00;90232.66;4992628;28;20034;-65
2022/04/18 05:52:31;;;;;;;44.00;27.48;;;;;;;0.52;100.00;90218.47;4992802;28;20034;-65
2022/04/18 05:54:57;;;;;;;164.10;16.02;;;;;;;0.48;100.00;90227.91;4992687;28;20080;-65
2022/04/18 05:57:22;;;;;;;18.88;13.93;;;;;;;0.22;100.00;90222.72;4992109;28;20037;-67
2022/04/18 05:59:48;;;;;;;21.35;14.68;;;;;;;0.40;100.00;90233.69;4992611;28;20412;-66
2022/04/18 06:02:15;;;;;;;164.43;103.78;;;;;;;0.77;100.00;90234.09;4992419;28;20042;-68
2022/04/18 06:04:40;;;;;;;31.80;20.45;;;;;;;1.06;100.00;90229.03;4975078;28;20031;-67
2022/04/18 06:07:06;;;;;;;17.70;12.00;;;;;;;0.95;100.00;90226.72;4992509;28;20030;-68
2022/04/18 06:09:31;;;;;;;24.17;15.15;;;;;;;0.94;100.00;90230.38;4992612;28;20053;-68
2022/04/18 06:11:57;;;;;;;7.97;5.93;;;;;;;0.84;100.00;90231.22;4992516;28;20040;-68
2022/04/18 06:14:22;;;;;;;31.08;20.17;;;;;;;0.88;100.00;90233.03;4992486;28;20405;-68
2022/04/18 06:16:48;;;;;;;9.18;6.53;;;;;;;0.93;100.00;90231.44;4992437;28;20018;-67
2022/04/18 06:19:13;;;;;;;9.07;6.70;;;;;;;0.80;100.00;90236.22;4992477;28;20050;-67
2022/04/18 06:21:40;;;;;;;12.90;9.90;;;;;;;0.98;100.00;90236.66;4992464;28;20091;-68
2022/04/18 06:24:05;;;;;;;11.75;8.10;;;;;;;1.13;100.00;90239.22;4992363;28;20042;-67
2022/04/18 06:26:31;;;;;;;12.23;8.95;;;;;;;1.12;100.00;90238.44;4992247;28;20516;-69
2022/04/18 06:28:57;;;;;;;29.05;19.13;;;;;;;1.43;100.00;90244.31;4992272;28;20093;-69
2022/04/18 06:31:23;;;;;;;14.55;10.13;;;;;;;1.43;100.00;90238.31;4992221;28;20023;-69
2022/04/18 06:33:49;;;;;;;17.38;11.43;;;;;;;1.64;100.00;90246.81;4992089;28;20034;-69
2022/04/18 06:36:14;;;;;;;13.82;8.18;;;;;;;1.83;100.00;90250.38;4991809;28;20113;-69
2022/04/18 06:38:39;;;;;;;14.07;8.27;;;;;;;2.05;100.00;90249.94;4991990;28;20049;-69
2022/04/18 06:41:05;;;;;;;15.32;8.40;;;;;;;2.28;100.00;90251.88;4991939;28;20026;-69
2022/04/18 06:43:30;;;;;;;11.10;8.05;;;;;;;2.49;100.00;90247.22;4992065;28;20026;-69
2022/04/18 06:45:56;;;;;;;20.20;12.52;;;;;;;2.91;100.00;90240.53;4991852;28;20065;-69
2022/04/18 06:48:22;;;;;;;54.95;32.63;;;;;;;3.27;100.00;90249.56;4992043;28;20034;-69
2022/04/18 06:50:48;;;;;;;30.85;17.15;;;;;;;3.64;100.00;90248.09;4991974;28;20504;-69
2022/04/18 06:53:13;;;;;;;12.00;8.77;;;;;;;2.89;100.00;90230.31;4991813;28;20113;-69
2022/04/18 06:58:24;;;;;;;11.35;9.70;;;;;;;3.24;100.00;90241.47;4991875;28;20089;-68
2022/04/18 07:00:49;;;;;;;24.55;15.73;;;;;;;3.20;100.00;90246.53;4991863;28;20030;-66
2022/04/18 07:03:15;;;;;;;25.88;16.88;;;;;;;3.39;100.00;90240.50;4991751;28;20057;-67
2022/04/18 07:05:41;;;;;;;19.05;11.88;;;;;;;3.15;100.00;90246.56;4991508;28;20100;-67
2022/04/18 07:08:08;;;;;;;21.15;12.95;;;;;;;2.86;100.00;90240.59;4991714;28;20046;-67
2022/04/18 07:10:33;;;;;;;22.30;13.52;;;;;;;2.84;100.00;90242.69;4991552;28;20052;-67
2022/04/18 07:12:59;;;;;;;9.32;7.40;;;;;;;2.64;100.00;90251.56;4991680;28;20037;-67
2022/04/18 07:15:25;;;;;;;11.35;8.00;;;;;;;2.84;100.00;90248.75;4991680;28;20032;-70
2022/04/18 07:17:51;;;;;;;13.50;9.63;;;;;;;2.88;100.00;90252.38;4991882;28;20034;-69
2022/04/18 07:20:16;;;;;;;21.95;13.23;;;;;;;3.23;100.00;90256.47;4991542;28;20566;-69
2022/04/18 07:22:42;;;;;;;13.70;8.20;;;;;;;3.51;100.00;90259.31;4992460;28;20026;-69
2022/04/18 07:25:08;;;;;;;14.65;10.68;;;;;;;3.18;100.00;90259.16;4991535;28;20544;-66
2022/04/18 07:27:34;;;;;;;10.43;7.15;;;;;;;3.35;100.00;90265.81;4991538;28;20393;-69
2022/04/18 07:29:59;;;;;;;9.95;5.45;;;;;;;3.58;100.00;90264.97;4991573;28;20034;-67
2022/04/18 07:32:25;;;;;;;7.90;6.35;;;;;;;3.57;100.00;90258.16;4991370;28;20045;-68
2022/04/18 07:34:50;;;;;;;8.00;6.15;;;;;;;3.81;100.00;90258.13;4991398;28;20041;-67
2022/04/18 07:37:16;;;;;;;12.82;9.38;;;;;;;3.89;100.00;90260.09;4991478;28;20038;-67
2022/04/18 07:39:41;;;;;;;10.13;7.38;;;;;;;3.54;100.00;90264.00;4991435;28;20026;-68
2022/04/18 07:42:07;;;;;;;17.27;11.57;;;;;;;3.56;100.00;90256.59;4991451;28;20497;-68
2022/04/18 07:44:32;;;;;;;13.38;9.88;;;;;;;3.77;100.00;90268.41;4991350;28;20023;-68
2022/04/18 07:46:58;;;;;;;28.88;18.50;;;;;;;3.41;100.00;90265.44;4991241;28;20030;-68
2022/04/18 07:49:24;;;;;;;36.88;19.80;;;;;;;4.02;100.00;90269.13;4991319;28;20034;-68
2022/04/18 07:51:50;;;;;;;27.75;13.82;;;;;;;4.15;100.00;90274.47;4991237;28;20516;-68
2022/04/18 07:54:17;;;;;;;39.40;22.27;;;;;;;4.27;100.00;90260.09;4991193;28;20041;-68
2022/04/18 07:56:43;;;;;;;30.38;20.38;;;;;;;4.49;100.00;90263.69;4991201;28;20034;-68
2022/04/18 07:59:10;;;;;;;44.67;28.10;;;;;;;5.03;100.00;90256.97;4990021;28;20034;-68
2022/04/18 08:01:35;;;;;;;12.52;8.50;;;;;;;4.51;100.00;90258.91;4991298;28;20034;-68
2022/04/18 08:04:01;;;;;;;15.40;10.35;;;;;;;4.63;100.00;90262.94;4991208;28;20030;-68
2022/04/18 08:06:31;;;;;;;22.42;12.73;;;;;;;4.43;100.00;90251.69;4990958;28;20085;-68
2022/04/18 08:08:57;;;;;;;44.55;21.92;;;;;;;3.97;100.00;90264.75;4991252;28;20026;-68
2022/04/18 08:11:23;;;;;;;23.90;14.45;;;;;;;3.66;100.00;90272.25;4991219;28;20411;-68
2022/04/18 08:13:50;;;;;;;19.17;11.20;;;;;;;3.97;100.00;90261.31;4991221;28;20036;-67
2022/04/18 08:16:15;;;;;;;17.05;10.77;;;;;;;3.36;100.00;90270.78;4991213;28;20092;-68
2022/04/18 08:18:44;;;;;;;15.18;10.38;;;;;;;3.25;100.00;90272.72;4991004;28;20447;-68
2022/04/18 08:21:11;;;;;;;16.23;11.13;;;;;;;3.41;100.00;90270.72;4991108;28;20033;-68
2022/04/18 08:23:37;;;;;;;16.13;9.95;;;;;;;3.40;100.00;90279.66;4991048;28;20030;-67
2022/04/18 08:26:03;;;;;;;18.05;11.82;;;;;;;3.51;100.00;90269.81;4990846;28;20079;-68
2022/04/18 08:28:29;;;;;;;18.92;11.82;;;;;;;3.01;100.00;90269.34;4990961;28;20457;-68
2022/04/18 08:30:55;;;;;;;10.98;7.63;;;;;;;3.44;100.00;90270.13;4990988;28;20134;-68
2022/04/18 08:33:21;;;;;;;8.73;5.75;;;;;;;3.20;100.00;90272.00;4994309;28;20113;-68
2022/04/18 08:35:46;;;;;;;14.68;7.78;;;;;;;3.16;100.00;90271.81;4977126;28;20030;-68
2022/04/18 08:38:12;;;;;;;18.58;13.57;;;;;;;2.65;100.00;90269.66;4994297;28;20062;-68
2022/04/18 08:40:41;;;;;;;32.40;18.88;;;;;;;2.54;100.00;90256.94;4994552;28;20489;-68
2022/04/18 08:43:06;;;;;;;50.80;29.88;;;;;;;2.77;100.00;90255.38;4994393;28;20034;-69
2022/04/18 08:45:32;;;;;;;16.63;12.32;;;;;;;3.25;100.00;90269.31;4994192;28;20186;-69
2022/04/18 08:53:31;;;;;;;21.45;10.40;;;;;;;3.97;100.00;90263.97;4994459;28;20092;-69
2022/04/18 08:56:01;;;;;;;24.48;10.63;;;;;;;4.08;100.00;90260.09;4994077;28;20031;-69
2022/04/18 08:58:27;;;;;;;216.27;62.53;;;;;;;3.62;100.00;90271.22;4993981;28;20105;-68
2022/04/18 09:00:55;;;;;;;33.90;13.40;;;;;;;3.54;100.00;90269.25;4994077;28;20501;-68
2022/04/18 09:03:20;;;;;;;30.95;12.60;;;;;;;3.44;100.00;90262.25;4994252;28;20038;-68
2022/04/18 09:05:46;;;;;;;15.38;9.85;;;;;;;3.72;100.00;90263.22;4993733;28;20563;-68
2022/04/18 09:08:12;;;;;;;24.85;13.55;;;;;;;3.94;100.00;90267.91;4993867;28;20543;-68
2022/04/18 09:10:40;;;;;;;23.08;14.02;;;;;;;4.46;100.00;90266.91;4993850;28;20439;-68
2022/04/18 09:13:07;;;;;;;18.98;13.48;;;;;;;4.28;100.00;90267.72;4993793;28;20488;-68
2022/04/18 09:15:46;;;;;;;14.73;9.60;;;;;;;4.14;100.00;90264.25;4993621;28;20606;-68
2022/04/18 09:18:20;;;;;;;10.13;6.25;;;;;;;4.36;100.00;90261.78;4993711;28;20030;-68
2022/04/18 09:20:49;;;;;;;20.83;13.68;;;;;;;3.98;100.00;90276.03;4993545;28;20074;-68
2022/04/18 09:23:23;;;;;;;20.77;11.65;;;;;;;3.74;100.00;90263.72;4993569;28;20022;-68
2022/04/18 09:26:16;;;;;;;36.45;17.02;;;;;;;3.65;100.00;90270.69;4993583;28;20468;-68
2022/04/18 09:28:41;;;;;;;32.22;18.45;;;;;;;4.09;100.00;90265.06;4991032;28;20571;-68
2022/04/18 09:31:08;;;;;;;23.95;14.40;;;;;;;4.26;100.00;90269.84;4993461;28;20038;-68
2022/04/18 09:33:52;;;;;;;22.15;13.73;;;;;;;4.08;100.00;90260.88;4993443;28;20027;-68
2022/04/18 09:36:19;;;;;;;11.25;7.47;;;;;;;4.09;100.00;90254.53;4993263;28;20117;-68
2022/04/18 09:38:56;;;;;;;16.80;11.30;;;;;;;4.17;100.00;90253.91;4993290;28;20026;-68
2022/04/18 09:41:26;;;;;;;24.40;14.90;;;;;;;4.03;100.00;90260.97;4993188;28;20038;-68
2022/04/18 09:43:53;;;;;;;19.55;11.80;;;;;;;4.39;100.00;90257.78;4992635;28;20022;-68
2022/04/18 09:46:20;;;;;;;20.40;12.57;;;;;;;4.51;100.00;90255.50;4992942;28;20034;-68
2022/04/18 09:48:47;;;;;;;24.70;16.00;;;;;;;4.56;100.00;90259.88;4993059;28;20471;-68
2022/04/18 09:51:16;;;;;;;8.73;6.43;;;;;;;5.01;100.00;90264.38;4993043;28;20030;-68
2022/04/18 09:53:45;;;;;;;11.35;6.70;;;;;;;5.24;100.00;90259.25;4993045;28;20034;-68
2022/04/18 09:56:15;;;;;;;9.88;6.97;;;;;;;5.04;100.00;90252.47;4991575;28;20057;-68
2022/04/18 09:58:42;;;;;;;12.32;8.35;;;;;;;4.72;100.00;90261.97;4992918;28;20025;-68
2022/04/18 10:01:08;;;;;;;28.85;15.18;;;;;;;4.68;100.00;90257.59;4975509;28;20046;-68
2022/04/18 10:03:35;;;;;;;25.95;14.45;;;;;;;4.45;100.00;90249.53;4992800;28;20026;-68
2022/04/18 10:06:01;;;;;;;33.15;20.52;;;;;;;4.31;100.00;90256.59;4992768;28;20042;-69
2022/04/18 10:08:28;;;;;;;31.15;19.52;;;;;;;4.22;100.00;90260.94;4993043;28;20023;-67
2022/04/18 10:10:59;;;;;;;24.10;16.85;;;;;;;4.08;100.00;90263.50;4992558;28;20556;-68
2022/04/18 10:13:26;;;;;;;162.68;102.32;;;;;;;4.49;100.00;90253.16;4992641;28;20034;-67
2022/04/18 10:15:53;;;;;;;28.65;17.50;;;;;;;4.16;100.00;90257.63;4992216;28;20030;-66
2022/04/18 10:18:19;;;;;;;26.88;16.70;;;;;;;4.33;100.00;90253.69;4992556;28;20026;-67
2022/04/18 10:21:06;;;;;;;21.42;14.10;;;;;;;4.95;100.00;90259.50;4992235;28;20047;-68
2022/04/18 10:24:09;;;;;;;22.00;13.63;;;;;;;4.90;100.00;90257.75;5011416;28;20084;-69
2022/04/18 10:27:23;;;;;;;17.97;11.87;;;;;;;4.12;100.00;90261.09;5011949;28;20030;-68
2022/04/18 10:29:51;;;;;;;;;;;;;;;3.85;100.00;90254.63;5012118;28;20045;-69
2022/04/18 10:32:24;;;;;;;22.17;13.50;;;;;;;3.55;100.00;90257.66;5011751;28;19920;-67
2022/04/18 10:34:57;;;;;;;19.70;13.38;;;;;;;3.75;100.00;90252.13;5011703;28;20046;-68
2022/04/18 10:37:26;;;;;;;18.42;12.85;;;;;;;3.67;100.00;90258.03;5010022;28;20436;-68
2022/04/18 10:40:00;;;;;;;19.17;13.60;;;;;;;3.30;100.00;90259.53;5010919;28;20062;-66
2022/04/18 10:42:31;;;;;;;11.38;7.82;;;;;;;4.04;100.00;90256.47;5011552;28;20069;-67
2022/04/18 10:45:05;;;;;;;6.70;4.95;;;;;;;4.16;100.00;90257.63;5011002;28;20052;-66
2022/04/18 10:47:55;;;;;;;19.20;12.30;;;;;;;4.50;100.00;90259.97;5011431;28;20064;-70
2022/04/18 10:50:25;;;;;;;17.15;12.15;;;;;;;4.58;100.00;90247.25;5011363;28;20045;-67
2022/04/18 10:53:10;;;;;;;24.48;13.73;;;;;;;4.89;100.00;90260.66;5011375;28;20572;-71
2022/04/18 10:55:56;;;;;;;16.27;11.65;;;;;;;5.10;100.00;90244.19;4999940;28;20048;-69
2022/04/18 10:58:27;;;;;;;12.88;9.43;;;;;;;5.01;100.00;90247.78;4997142;28;20062;-67
2022/04/18 11:00:57;;;;;;;12.68;8.30;;;;;;;4.94;100.00;90242.13;5010528;28;20125;-68
2022/04/18 11:03:38;;;;;;;17.95;11.23;;;;;;;4.95;100.00;90244.47;5011148;28;20476;-67
2022/04/18 11:06:15;;;;;;;14.80;10.88;;;;;;;4.54;100.00;90247.00;5010044;28;20096;-65
2022/04/18 11:08:56;;;;;;;6.30;5.32;;;;;;;4.34;100.00;90234.97;5007087;28;20108;-67
2022/04/18 11:11:21;;;;;;;9.73;7.28;;;;;;;4.10;100.00;90234.28;5010808;28;20034;-66
2022/04/18 11:13:48;;;;;;;8.52;7.03;;;;;;;4.24;100.00;90237.75;5010156;28;20034;-67
2022/04/18 11:16:23;;;;;;;11.82;8.90;;;;;;;4.60;100.00;90247.72;5009787;28;20515;-67
2022/04/18 11:19:07;;;;;;;15.10;8.93;;;;;;;4.39;100.00;90248.03;5010638;28;20384;-66
2022/04/18 11:21:59;;;;;;;8.32;5.20;;;;;;;4.70;100.00;90245.69;5010934;28;20034;-67
2022/04/18 11:24:41;;;;;;;19.80;11.68;;;;;;;4.70;100.00;90239.63;5010738;28;20050;-66
2022/04/18 11:27:09;;;;;;;11.98;7.65;;;;;;;4.78;100.00;90239.00;5006146;28;20033;-66
2022/04/18 11:29:39;;;;;;;8.38;5.90;;;;;;;4.57;100.00;90237.75;5009874;28;20056;-67
2022/04/18 11:32:06;;;;;;;9.38;6.28;;;;;;;4.67;100.00;90234.94;5010730;28;20500;-67
2022/04/18 11:34:36;;;;;;;15.32;8.63;;;;;;;4.86;100.00;90227.75;5010080;28;20041;-67
2022/04/18 11:37:04;;;;;;;39.90;22.83;;;;;;;5.41;100.00;90243.63;5010407;28;20038;-67
2022/04/18 11:39:49;;;;;;;18.00;10.77;;;;;;;5.22;100.00;90227.13;5010490;28;20042;-67
2022/04/18 11:42:16;;;;;;;27.88;13.85;;;;;;;5.13;100.00;90232.28;5010355;28;20080;-66
2022/04/18 11:44:44;;;;;;;25.58;13.07;;;;;;;5.08;100.00;90227.91;5009477;28;20508;-67